Glen Rose, TX (76043)

8:32 PM CDT on April 01, 2015 (GMT -0500)
Opossum Hollow | | Change Station
CLOSE
Current Station
Personal Weather Station
Location: Glen Rose, TX
Elevation: 771 ft
Nearby Weather Stations

Elev 771 ft 32.25 °N, 97.83 °W | Updated 3 seconds ago

Mostly Cloudy
Mostly Cloudy
72.9 °F
Feels Like 75 °F
N
1.0
Wind Variable Wind from SSE
Gusts 5.0 mph

Today
High -- | Low -- °F
--% Chance of Precip.
Yesterday
High -- | Low -- °F
Precip. -- in
7:19 AM 7:50 PM
Waxing Gibbous, 95% visible
Pressure 29.84 in
Visibility -9999.0 miles
Clouds Clear
Heat Index 75 °F
Dew Point 63 °F
Humidity 71%
Rainfall 0.00 in
Snow Depth Not available.
UV 0 out of 12
Pollen 11.70 out of 12
Air Quality Not available.
Flu Activity Not available.
METAR KCPT 020115Z AUTO 17008KT CLR 22/19 A2984 RMK AO2

More Conditions Fewer Conditions

Pressure 29.84 in
Visibility -9999.0 miles
Clouds Clear
Heat Index 75 °F
Dew Point 63 °F
Humidity 71%
Rainfall 0.00 in
Snow Depth Not available.
UV 0 out of 12
Pollen 11.70 out of 12
Air Quality Not available.
Flu Activity Not available.
METAR KCPT 020115Z AUTO 17008KT CLR 22/19 A2984 RMK AO2

More Conditions Fewer Conditions

Nowcast | as of 6:50 PM CDT on April 1, 2015

Scattered showers and thunderstorms will continue into the evening hours. But as temperatures cool and a disturbance aloft shifts east of the region...the activity will come to an end after nightfall. In the meantime...some of the storms could become severe...with large hail...strong gusty winds...and frequent cloud-to-ground lightning. Move indoors immediately if lightning is seen or thunder is heard. Outside of rain areas...mild and breezy conditions will prevail... with temperatures generally in the 70s.

×

10-Day Weather Forecast

Almanac

Astronomy

Apr. 01, 2015 Rise Set
Actual Time
Civil Twilight
Nautical Twilight
Astronomical Twilight
Moon
Length of Visible Light
Length of Day
Tomorrow will be .
, % of the Moon is Illuminated

Today's Extremes

State Highs State Lows

Community

WunderPhotos

Upload Photos

1,810,148 photos uploaded!

WunderBlogs® & News

Nearby

Air Quality

  Air Quality AQ Index Pollutant
Not available.

Snow Depth

Station Depth Elevation

Earthquake Activity

City Distance Mag. Time & Date
Minimum magnitude displayed is 2.5.

Coastal Water Temperatures

Place Temperature

Stations

Nearby Weather Stations

Station Location Temp. Windchill Dew Point Humidity Wind Precip. Elev Updated Type